Ellerslie, Georgia
Current Conditions -  °F | °C
As of 3:51 PM on Saturday 22 Nov 2014 (Local Time) from KCSG Reporting Station
Broken Clouds Broken Clouds  
Wind Chill: 65°   Ceiling: 7000
Heat Index: 65°   Visibility: 10mi
Dew Point: 45°   Wind: 12mph
Humidity: 48%   Direction: 140°SE
Pressure: 30.23"   Gusts: NA
Location:  32.63°N, 84.8°W
Report Text: KCSG 222051Z 14010KT 10SM FEW035 SCT055 BKN070 18/07 A3023 RMK AO2 SLP234 T01830072 56030
Loading
Personal Weather Stations






























Interactive Weather Map New forecast layout! Learn more

10-Day Weather Forecast

Advertisements
Track Severe Weather on mobile